Terminal Aerodrome Forecast
Issued by NWS Albany, NY

Home | Current Version | Previous Version | Text Only | Print | Product List | Glossary On
Versions: 1 2 3 4 5 6 7 8 9 10 11 12 13 14 15 16 17 18 19 20 21 22 23 24 25 26 27
000
FTUS41 KALY 012100 AAB
TAFPOU
TAF AMD
KPOU 012153Z 0122/0218 36006KT P6SM VCSH SCT015 BKN025 OVC050
      TEMPO 0122/0124 BKN015 OVC025
     FM020000 VRB03KT P6SM VCSH OVC025
     FM020600 VRB03KT 3SM BR OVC025
     FM020900 VRB03KT 2SM BR OVC015
     FM021500 36005KT P6SM OVC025=

USA.gov is the U.S. government's official web portal to all federal, state and local government web resources and services.